Time;durP1;ratioP1;P1;durP2;ratioP2;P2;SDS_P1;SDS_P2;PMS_P1;PMS_P2;Temp;Humidity;BMP_temperature;BMP_pressure;BME280_temperature;BME280_humidity;BME280_pressure;Samples;Min_cycle;Max_cycle;Signal;HPM_P1;HPM_P2
2022/04/11 00:02:18;;;;;;;0.20;0.20;;;;;;;;;;5031403;28;20297;-74
2022/04/11 00:04:44;;;;;;;0.17;0.17;;;;;;;;;;5042624;28;20381;-74
2022/04/11 00:07:12;;;;;;;0.20;0.20;;;;;;;;;;5031115;28;20250;-75
2022/04/11 00:09:38;;;;;;;0.20;0.20;;;;;;;;;;5042630;28;20280;-75
2022/04/11 00:12:05;;;;;;;0.10;0.10;;;;;;;;;;5031492;28;20276;-73
2022/04/11 00:14:31;;;;;;;0.20;0.20;;;;;;;;;;5042766;28;20211;-74
2022/04/11 00:16:57;;;;;;;0.20;0.20;;;;;;;;;;5031426;28;20250;-75
2022/04/11 00:19:23;;;;;;;0.10;0.10;;;;;;;;;;5042317;28;20232;-73
2022/04/11 00:21:50;;;;;;;0.20;0.20;;;;;;;;;;5031286;28;20258;-75
2022/04/11 00:24:17;;;;;;;0.20;0.20;;;;;;;;;;5042576;28;20338;-74
2022/04/11 00:26:44;;;;;;;0.10;0.10;;;;;;;;;;5031220;28;20243;-74
2022/04/11 00:29:11;;;;;;;0.13;0.13;;;;;;;;;;5041979;28;20253;-75
2022/04/11 00:31:37;;;;;;;0.10;0.10;;;;;;;;;;5031144;28;20644;-74
2022/04/11 00:34:04;;;;;;;0.20;0.20;;;;;;;;;;5041915;28;20522;-74
2022/04/11 00:36:30;;;;;;;0.20;0.20;;;;;;;;;;5031292;28;20476;-74
2022/04/11 00:38:56;;;;;;;0.20;0.20;;;;;;;;;;5042092;28;20213;-73
2022/04/11 00:41:24;;;;;;;0.20;0.20;;;;;;;;;;5031390;28;20254;-74
2022/04/11 00:43:50;;;;;;;0.13;0.13;;;;;;;;;;5041865;28;20216;-74
2022/04/11 00:46:16;;;;;;;0.20;0.20;;;;;;;;;;5031628;28;20607;-74
2022/04/11 00:48:43;;;;;;;0.20;0.20;;;;;;;;;;5041939;28;20382;-74
2022/04/11 00:51:10;;;;;;;2.30;2.10;;;;;;;;;;5031413;28;20267;-74
2022/04/11 00:53:38;;;;;;;0.20;0.20;;;;;;;;;;5041818;28;20218;-74
2022/04/11 00:56:05;;;;;;;0.20;0.20;;;;;;;;;;5031427;28;20251;-74
2022/04/11 00:58:33;;;;;;;0.20;0.20;;;;;;;;;;5041796;28;20271;-73
2022/04/11 01:00:59;;;;;;;0.20;0.20;;;;;;;;;;5031399;28;20251;-74
2022/04/11 01:03:26;;;;;;;0.20;0.20;;;;;;;;;;5041759;28;20210;-74
2022/04/11 01:05:52;;;;;;;0.20;0.20;;;;;;;;;;5031646;28;20245;-74
2022/04/11 01:08:19;;;;;;;0.10;0.10;;;;;;;;;;5041411;28;20250;-74
2022/04/11 01:10:46;;;;;;;0.10;0.10;;;;;;;;;;5033370;28;20293;-75
2022/04/11 01:13:13;;;;;;;0.20;0.20;;;;;;;;;;5045108;28;20211;-73
2022/04/11 01:15:40;;;;;;;0.10;0.10;;;;;;;;;;5035440;28;20240;-74
2022/04/11 01:18:07;;;;;;;0.20;0.20;;;;;;;;;;5044941;28;20240;-74
2022/04/11 01:20:33;;;;;;;0.20;0.20;;;;;;;;;;5035564;28;20252;-74
2022/04/11 01:23:01;;;;;;;0.20;0.20;;;;;;;;;;5044692;28;20213;-73
2022/04/11 01:25:27;;;;;;;0.20;0.20;;;;;;;;;;5035022;28;20292;-74
2022/04/11 01:27:54;;;;;;;0.10;0.10;;;;;;;;;;5044655;28;20222;-74
2022/04/11 01:30:20;;;;;;;0.10;0.10;;;;;;;;;;5035182;28;20268;-75
2022/04/11 01:32:46;;;;;;;0.20;0.20;;;;;;;;;;5044532;28;20277;-73
2022/04/11 01:35:22;;;;;;;0.20;0.20;;;;;;;;;;5035168;28;20222;-74
2022/04/11 01:37:48;;;;;;;0.20;0.20;;;;;;;;;;5044377;28;20265;-73
2022/04/11 01:40:18;;;;;;;0.20;0.20;;;;;;;;;;5034945;28;20246;-73
2022/04/11 01:42:44;;;;;;;0.13;0.13;;;;;;;;;;5044038;28;20449;-74
2022/04/11 01:45:11;;;;;;;0.20;0.20;;;;;;;;;;5034873;28;20414;-75
2022/04/11 01:47:38;;;;;;;0.20;0.20;;;;;;;;;;5044159;28;20232;-74
2022/04/11 01:50:04;;;;;;;0.20;0.20;;;;;;;;;;5045149;28;20213;-74
2022/04/11 01:52:30;;;;;;;0.20;0.20;;;;;;;;;;5033132;28;20242;-74
2022/04/11 01:54:57;;;;;;;0.20;0.20;;;;;;;;;;5045028;28;20335;-74
2022/04/11 01:57:24;;;;;;;0.20;0.20;;;;;;;;;;5052616;28;20322;-74
2022/04/11 01:59:50;;;;;;;0.20;0.20;;;;;;;;;;5064699;28;20210;-74
2022/04/11 02:02:17;;;;;;;0.20;0.20;;;;;;;;;;5053130;28;20239;-74
2022/04/11 02:04:43;;;;;;;0.10;0.10;;;;;;;;;;5064818;28;20365;-73
2022/04/11 02:07:09;;;;;;;0.20;0.20;;;;;;;;;;5035963;28;20249;-74
2022/04/11 02:09:36;;;;;;;0.20;0.20;;;;;;;;;;5044571;28;20206;-73
2022/04/11 02:12:02;;;;;;;0.20;0.20;;;;;;;;;;5033373;28;20273;-74
2022/04/11 02:14:30;;;;;;;0.20;0.20;;;;;;;;;;5044539;28;20396;-74
2022/04/11 02:16:57;;;;;;;0.20;0.20;;;;;;;;;;5033274;28;20317;-73
2022/04/11 02:19:23;;;;;;;0.20;0.20;;;;;;;;;;5044480;28;20214;-74
2022/04/11 02:21:49;;;;;;;0.20;0.20;;;;;;;;;;5032351;28;20254;-74
2022/04/11 02:24:16;;;;;;;0.17;0.17;;;;;;;;;;5044392;28;20214;-74
2022/04/11 02:26:42;;;;;;;0.20;0.20;;;;;;;;;;5032771;28;20255;-73
2022/04/11 02:29:08;;;;;;;0.20;0.20;;;;;;;;;;5043854;28;20211;-74
2022/04/11 02:31:36;;;;;;;0.20;0.20;;;;;;;;;;5033208;28;20277;-74
2022/04/11 02:34:03;;;;;;;0.20;0.20;;;;;;;;;;5043769;28;20230;-74
2022/04/11 02:36:29;;;;;;;0.20;0.20;;;;;;;;;;5032942;28;20254;-73
2022/04/11 02:38:55;;;;;;;0.20;0.20;;;;;;;;;;5043388;28;20202;-73
2022/04/11 02:41:21;;;;;;;0.20;0.20;;;;;;;;;;5032897;28;20247;-75
2022/04/11 02:43:48;;;;;;;0.20;0.20;;;;;;;;;;5043411;28;20259;-73
2022/04/11 02:46:15;;;;;;;0.10;0.10;;;;;;;;;;5033128;28;20291;-74
2022/04/11 02:48:42;;;;;;;0.20;0.20;;;;;;;;;;5043316;28;20236;-74
2022/04/11 02:51:09;;;;;;;0.20;0.20;;;;;;;;;;5032976;28;20291;-73
2022/04/11 02:53:36;;;;;;;0.20;0.20;;;;;;;;;;5043269;28;20241;-74
2022/04/11 02:56:02;;;;;;;0.20;0.20;;;;;;;;;;5032761;28;20245;-74
2022/04/11 02:58:28;;;;;;;0.20;0.20;;;;;;;;;;5043247;28;20217;-74
2022/04/11 03:00:55;;;;;;;0.20;0.20;;;;;;;;;;5032867;28;20359;-73
2022/04/11 03:03:21;;;;;;;0.20;0.20;;;;;;;;;;5043267;28;20367;-74
2022/04/11 03:05:49;;;;;;;0.20;0.20;;;;;;;;;;5033237;28;20253;-73
2022/04/11 03:08:15;;;;;;;0.20;0.20;;;;;;;;;;5042871;28;20517;-73
2022/04/11 03:10:42;;;;;;;0.20;0.20;;;;;;;;;;5032610;28;20246;-74
2022/04/11 03:13:08;;;;;;;0.20;0.20;;;;;;;;;;5042703;28;20486;-74
2022/04/11 03:15:34;;;;;;;0.20;0.20;;;;;;;;;;5032580;28;20251;-73
2022/04/11 03:18:01;;;;;;;0.17;0.17;;;;;;;;;;5042498;28;20206;-74
2022/04/11 03:20:27;;;;;;;0.20;0.20;;;;;;;;;;5033049;28;20252;-74
2022/04/11 03:22:55;;;;;;;0.20;0.20;;;;;;;;;;5042654;28;20381;-74
2022/04/11 03:25:21;;;;;;;0.20;0.20;;;;;;;;;;5033179;28;20251;-74
2022/04/11 03:27:48;;;;;;;0.20;0.20;;;;;;;;;;5042360;28;20406;-75
2022/04/11 03:30:15;;;;;;;0.20;0.20;;;;;;;;;;5032911;28;20232;-74
2022/04/11 03:32:41;;;;;;;0.20;0.20;;;;;;;;;;5041710;28;20277;-75
2022/04/11 03:35:09;;;;;;;0.20;0.20;;;;;;;;;;5032109;28;20218;-74
2022/04/11 03:37:35;;;;;;;0.20;0.20;;;;;;;;;;5041891;28;20273;-74
2022/04/11 03:40:04;;;;;;;0.20;0.20;;;;;;;;;;5042686;28;20217;-73
2022/04/11 03:42:30;;;;;;;0.20;0.20;;;;;;;;;;5031413;28;20397;-73
2022/04/11 03:44:56;;;;;;;0.20;0.20;;;;;;;;;;5043071;28;20303;-73
2022/04/11 03:47:22;;;;;;;0.20;0.20;;;;;;;;;;5014889;28;20445;-75
2022/04/11 03:49:48;;;;;;;0.20;0.20;;;;;;;;;;5042704;28;20329;-75
2022/04/11 03:52:15;;;;;;;0.10;0.10;;;;;;;;;;5031419;28;20237;-74
2022/04/11 03:54:41;;;;;;;0.20;0.20;;;;;;;;;;5042840;28;20243;-73
2022/04/11 03:57:08;;;;;;;0.20;0.20;;;;;;;;;;5031609;28;20294;-75
2022/04/11 03:59:35;;;;;;;0.20;0.20;;;;;;;;;;5042599;28;20294;-73
2022/04/11 04:02:01;;;;;;;0.20;0.20;;;;;;;;;;5031426;28;20296;-75
2022/04/11 04:04:27;;;;;;;0.10;0.10;;;;;;;;;;5042796;28;20251;-73
2022/04/11 04:06:54;;;;;;;0.20;0.20;;;;;;;;;;5031476;28;20469;-74
2022/04/11 04:09:20;;;;;;;0.20;0.20;;;;;;;;;;5042857;28;20473;-74
2022/04/11 04:11:47;;;;;;;0.20;0.20;;;;;;;;;;5031497;28;20244;-73
2022/04/11 04:14:15;;;;;;;0.20;0.20;;;;;;;;;;5042407;28;20210;-74
2022/04/11 04:16:41;;;;;;;0.20;0.20;;;;;;;;;;5031439;28;20255;-75
2022/04/11 04:19:08;;;;;;;0.20;0.20;;;;;;;;;;5042350;28;20308;-73
2022/04/11 04:21:34;;;;;;;0.20;0.20;;;;;;;;;;5031608;28;20481;-74
2022/04/11 04:24:00;;;;;;;0.20;0.20;;;;;;;;;;5042571;28;20218;-74
2022/04/11 04:26:26;;;;;;;0.20;0.20;;;;;;;;;;5031449;28;20306;-74
2022/04/11 04:28:53;;;;;;;0.20;0.20;;;;;;;;;;5042401;28;20415;-75
2022/04/11 04:31:20;;;;;;;0.20;0.20;;;;;;;;;;5031561;28;20240;-75
2022/04/11 04:33:46;;;;;;;0.20;0.20;;;;;;;;;;5041661;28;20208;-74
2022/04/11 04:36:13;;;;;;;0.20;0.20;;;;;;;;;;5031261;28;20299;-73
2022/04/11 04:38:39;;;;;;;0.20;0.20;;;;;;;;;;5041691;28;20200;-73
2022/04/11 04:41:05;;;;;;;0.10;0.10;;;;;;;;;;5031789;28;20275;-74
2022/04/11 04:43:32;;;;;;;0.20;0.20;;;;;;;;;;5041803;28;20432;-75
2022/04/11 04:45:58;;;;;;;0.20;0.20;;;;;;;;;;5034363;28;20462;-74
2022/04/11 04:48:26;;;;;;;0.20;0.20;;;;;;;;;;5045459;28;20209;-73
2022/04/11 04:50:54;;;;;;;0.20;0.20;;;;;;;;;;5035299;28;20252;-74
2022/04/11 04:53:20;;;;;;;0.20;0.20;;;;;;;;;;5045321;28;20255;-74
2022/04/11 04:55:46;;;;;;;0.20;0.20;;;;;;;;;;5035643;28;20244;-74
2022/04/11 04:58:12;;;;;;;0.20;0.20;;;;;;;;;;5045141;28;20205;-74
2022/04/11 05:00:39;;;;;;;0.20;0.20;;;;;;;;;;5035680;28;20547;-74
2022/04/11 05:03:05;;;;;;;0.20;0.20;;;;;;;;;;5045219;28;20245;-74
2022/04/11 05:05:35;;;;;;;0.10;0.10;;;;;;;;;;5035773;28;20251;-74
2022/04/11 05:08:01;;;;;;;0.20;0.20;;;;;;;;;;5045040;28;20201;-74
2022/04/11 05:10:27;;;;;;;0.20;0.20;;;;;;;;;;5035467;28;20255;-73
2022/04/11 05:12:54;;;;;;;0.20;0.20;;;;;;;;;;5044836;28;20236;-74
2022/04/11 05:15:23;;;;;;;0.20;0.20;;;;;;;;;;5035229;28;20268;-74
2022/04/11 05:17:50;;;;;;;0.20;0.20;;;;;;;;;;5044947;28;20214;-75
2022/04/11 05:20:16;;;;;;;0.20;0.20;;;;;;;;;;5035488;28;20280;-74
2022/04/11 05:22:44;;;;;;;0.20;0.20;;;;;;;;;;5044656;28;20197;-73
2022/04/11 05:25:10;;;;;;;0.20;0.20;;;;;;;;;;5034968;28;20272;-77
2022/04/11 05:27:36;;;;;;;0.20;0.20;;;;;;;;;;5044418;28;20209;-74
2022/04/11 05:30:05;;;;;;;0.20;0.20;;;;;;;;;;5045402;28;20214;-74
2022/04/11 05:32:32;;;;;;;0.20;0.20;;;;;;;;;;5017353;28;20222;-73
2022/04/11 05:34:58;;;;;;;0.20;0.20;;;;;;;;;;5045029;28;20251;-74
2022/04/11 05:37:25;;;;;;;0.20;0.20;;;;;;;;;;5034197;28;20588;-74
2022/04/11 05:39:52;;;;;;;0.20;0.20;;;;;;;;;;5045033;28;20216;-73
2022/04/11 05:42:18;;;;;;;0.30;0.30;;;;;;;;;;5033955;28;20252;-74
2022/04/11 05:44:45;;;;;;;0.20;0.20;;;;;;;;;;5045377;28;20213;-74
2022/04/11 05:47:12;;;;;;;0.20;0.20;;;;;;;;;;5033961;28;20245;-75
2022/04/11 05:49:39;;;;;;;0.20;0.20;;;;;;;;;;5045209;28;20205;-74
2022/04/11 05:52:06;;;;;;;0.20;0.20;;;;;;;;;;5033990;28;20345;-74
2022/04/11 05:54:32;;;;;;;0.20;0.20;;;;;;;;;;5045224;28;20235;-74
2022/04/11 05:57:00;;;;;;;0.20;0.20;;;;;;;;;;5032712;28;20237;-74
2022/04/11 05:59:26;;;;;;;0.20;0.20;;;;;;;;;;5045022;28;20210;-74
2022/04/11 06:01:52;;;;;;;0.20;0.20;;;;;;;;;;5033895;28;20407;-74
2022/04/11 06:04:18;;;;;;;0.20;0.20;;;;;;;;;;5044582;28;20250;-74
2022/04/11 06:06:45;;;;;;;0.20;0.20;;;;;;;;;;5033352;28;20254;-74
2022/04/11 06:09:11;;;;;;;0.20;0.20;;;;;;;;;;5044327;28;20212;-73
2022/04/11 06:11:37;;;;;;;0.20;0.20;;;;;;;;;;5033525;28;20585;-74
2022/04/11 06:14:06;;;;;;;0.20;0.20;;;;;;;;;;5044324;28;20248;-73
2022/04/11 06:16:32;;;;;;;0.20;0.20;;;;;;;;;;5033608;28;20257;-76
2022/04/11 06:18:58;;;;;;;0.10;0.10;;;;;;;;;;5044057;28;20260;-75
2022/04/11 06:21:25;;;;;;;0.20;0.20;;;;;;;;;;5033492;28;20307;-75
2022/04/11 06:23:51;;;;;;;0.20;0.20;;;;;;;;;;5044170;28;20206;-75
2022/04/11 06:26:17;;;;;;;0.20;0.20;;;;;;;;;;5033475;28;20314;-74
2022/04/11 06:28:44;;;;;;;0.20;0.20;;;;;;;;;;5043511;28;20544;-75
2022/04/11 06:31:13;;;;;;;0.53;0.53;;;;;;;;;;5033503;28;20295;-76
2022/04/11 06:33:40;;;;;;;0.20;0.20;;;;;;;;;;5043131;28;20472;-74
2022/04/11 06:36:07;;;;;;;0.20;0.20;;;;;;;;;;5033385;28;20247;-75
2022/04/11 06:38:37;;;;;;;0.20;0.20;;;;;;;;;;5044011;28;20252;-76
2022/04/11 06:41:04;;;;;;;0.20;0.20;;;;;;;;;;5033595;28;20348;-75
2022/04/11 06:43:47;;;;;;;0.10;0.10;;;;;;;;;;5043661;28;20531;-75
2022/04/11 06:46:15;;;;;;;0.10;0.10;;;;;;;;;;5031182;28;20244;-76
2022/04/11 06:48:43;;;;;;;0.10;0.10;;;;;;;;;;5043943;28;20263;-80
2022/04/11 06:51:12;;;;;;;5.70;4.33;;;;;;;;;;5034574;28;20325;-78
2022/04/11 06:53:40;;;;;;;0.10;0.10;;;;;;;;;;5043602;28;20247;-76
2022/04/11 06:56:08;;;;;;;0.10;0.10;;;;;;;;;;5031771;28;20258;-76
2022/04/11 06:58:34;;;;;;;0.10;0.10;;;;;;;;;;5043648;28;20210;-78
2022/04/11 07:01:01;;;;;;;0.10;0.10;;;;;;;;;;5032301;28;20245;-77
2022/04/11 07:03:32;;;;;;;0.10;0.10;;;;;;;;;;5042739;28;20400;-74
2022/04/11 07:05:58;;;;;;;0.10;0.10;;;;;;;;;;5033166;28;20244;-72
2022/04/11 07:08:24;;;;;;;0.10;0.10;;;;;;;;;;5042673;28;20372;-73
2022/04/11 07:10:51;;;;;;;0.10;0.10;;;;;;;;;;5032805;28;20240;-71
2022/04/11 07:13:17;;;;;;;0.10;0.10;;;;;;;;;;5042790;28;20235;-73
2022/04/11 07:15:43;;;;;;;0.10;0.10;;;;;;;;;;5033235;28;20298;-76
2022/04/11 07:18:09;;;;;;;0.10;0.10;;;;;;;;;;5042696;28;20255;-76
2022/04/11 07:20:38;;;;;;;0.10;0.10;;;;;;;;;;5033088;28;20247;-77
2022/04/11 07:23:05;;;;;;;0.10;0.10;;;;;;;;;;5042619;28;20229;-77
2022/04/11 07:25:31;;;;;;;0.10;0.10;;;;;;;;;;5033156;28;20470;-74
2022/04/11 07:27:57;;;;;;;0.10;0.10;;;;;;;;;;5042135;28;20196;-76
2022/04/11 07:30:24;;;;;;;0.10;0.10;;;;;;;;;;5032633;28;20315;-75
2022/04/11 07:32:50;;;;;;;0.10;0.10;;;;;;;;;;5041823;28;20611;-76
2022/04/11 07:35:17;;;;;;;0.10;0.10;;;;;;;;;;5032604;28;20302;-75
2022/04/11 07:37:45;;;;;;;0.10;0.10;;;;;;;;;;5042095;28;20594;-76
2022/04/11 07:40:11;;;;;;;0.10;0.10;;;;;;;;;;5032474;28;20217;-76
2022/04/11 07:42:38;;;;;;;0.50;0.50;;;;;;;;;;5041530;28;20404;-75
2022/04/11 07:45:05;;;;;;;0.10;0.10;;;;;;;;;;5042897;28;20222;-76
2022/04/11 07:47:31;;;;;;;0.10;0.10;;;;;;;;;;5031652;28;20291;-76
2022/04/11 07:49:59;;;;;;;0.10;0.10;;;;;;;;;;5042627;28;20224;-75
2022/04/11 07:52:25;;;;;;;0.10;0.10;;;;;;;;;;5031565;28;20251;-76
2022/04/11 07:54:53;;;;;;;0.10;0.10;;;;;;;;;;5042574;28;20644;-78
2022/04/11 07:57:19;;;;;;;0.10;0.10;;;;;;;;;;5030965;28;20257;-76
2022/04/11 07:59:46;;;;;;;0.10;0.10;;;;;;;;;;5042741;28;20211;-77
2022/04/11 08:02:12;;;;;;;0.10;0.10;;;;;;;;;;5031589;28;20488;-77
2022/04/11 08:04:38;;;;;;;0.10;0.10;;;;;;;;;;5042357;28;20244;-76
2022/04/11 08:07:05;;;;;;;0.10;0.10;;;;;;;;;;5031208;28;20275;-76
2022/04/11 08:09:32;;;;;;;0.27;0.27;;;;;;;;;;5042749;28;20248;-75
2022/04/11 08:11:59;;;;;;;0.10;0.10;;;;;;;;;;5031995;28;20838;-76
2022/04/11 08:14:26;;;;;;;0.10;0.10;;;;;;;;;;5042869;28;20235;-79
2022/04/11 08:16:52;;;;;;;0.10;0.10;;;;;;;;;;5031305;28;20252;-76
2022/04/11 08:19:18;;;;;;;0.10;0.10;;;;;;;;;;5042287;28;20212;-77
2022/04/11 08:21:44;;;;;;;0.10;0.10;;;;;;;;;;5035826;28;20245;-76
2022/04/11 08:24:11;;;;;;;0.10;0.10;;;;;;;;;;5046321;28;20278;-78
2022/04/11 08:26:37;;;;;;;0.10;0.10;;;;;;;;;;5036228;28;20247;-77
2022/04/11 08:29:05;;;;;;;0.10;0.10;;;;;;;;;;5046287;28;20220;-79
2022/04/11 08:31:31;;;;;;;0.10;0.10;;;;;;;;;;5035521;28;20459;-75
2022/04/11 08:33:57;;;;;;;0.10;0.10;;;;;;;;;;5045635;28;20229;-75
2022/04/11 08:36:24;;;;;;;0.10;0.10;;;;;;;;;;5035467;28;20340;-76
2022/04/11 08:38:52;;;;;;;0.10;0.10;;;;;;;;;;5046057;28;20239;-75
2022/04/11 08:41:19;;;;;;;0.10;0.10;;;;;;;;;;5035601;28;20271;-77
2022/04/11 08:43:46;;;;;;;0.10;0.10;;;;;;;;;;5045634;28;20255;-75
2022/04/11 08:46:16;;;;;;;0.10;0.10;;;;;;;;;;5035472;28;20247;-75
2022/04/11 08:48:43;;;;;;;0.10;0.10;;;;;;;;;;5045440;28;20212;-76
2022/04/11 08:51:09;;;;;;;0.10;0.10;;;;;;;;;;5035168;28;20250;-75
2022/04/11 08:53:35;;;;;;;0.10;0.10;;;;;;;;;;5045100;28;20234;-76
2022/04/11 08:56:02;;;;;;;0.10;0.10;;;;;;;;;;5035211;28;20321;-76
2022/04/11 08:58:28;;;;;;;0.00;0.00;;;;;;;;;;5045319;28;20555;-77
2022/04/11 09:00:54;;;;;;;0.10;0.10;;;;;;;;;;5035295;28;20244;-77
2022/04/11 09:03:22;;;;;;;0.10;0.10;;;;;;;;;;5044979;28;20204;-75
2022/04/11 09:06:03;;;;;;;0.10;0.10;;;;;;;;;;5035187;28;20246;-76
2022/04/11 09:08:36;;;;;;;0.10;0.10;;;;;;;;;;5044855;28;20531;-76
2022/04/11 09:11:03;;;;;;;0.10;0.10;;;;;;;;;;5035185;28;20241;-76
2022/04/11 09:13:29;;;;;;;0.10;0.10;;;;;;;;;;5045106;28;20473;-77
2022/04/11 09:15:56;;;;;;;0.00;0.00;;;;;;;;;;5035122;28;20259;-78
2022/04/11 09:18:23;;;;;;;0.03;0.03;;;;;;;;;;5045259;28;20209;-77
2022/04/11 09:20:51;;;;;;;0.00;0.00;;;;;;;;;;5035754;28;20347;-77
2022/04/11 09:23:18;;;;;;;0.10;0.10;;;;;;;;;;5044909;28;20281;-77
2022/04/11 09:25:45;;;;;;;0.00;0.00;;;;;;;;;;5035629;28;20259;-77
2022/04/11 09:28:12;;;;;;;0.10;0.10;;;;;;;;;;5045280;28;20220;-77
2022/04/11 09:30:39;;;;;;;0.10;0.10;;;;;;;;;;5035231;28;20352;-77
2022/04/11 09:33:06;;;;;;;0.00;0.00;;;;;;;;;;5044685;28;20386;-76
2022/04/11 09:35:34;;;;;;;0.10;0.10;;;;;;;;;;5034578;28;20257;-77
2022/04/11 09:38:14;;;;;;;0.10;0.10;;;;;;;;;;5044331;28;20209;-78
2022/04/11 09:40:41;;;;;;;0.10;0.10;;;;;;;;;;5037596;28;20243;-78
2022/04/11 09:43:08;;;;;;;0.10;0.10;;;;;;;;;;5045354;28;20364;-78
2022/04/11 09:45:39;;;;;;;0.00;0.00;;;;;;;;;;5034819;28;20258;-75
2022/04/11 09:48:06;;;;;;;0.10;0.10;;;;;;;;;;5043915;28;20216;-74
2022/04/11 09:50:33;;;;;;;0.10;0.10;;;;;;;;;;5034539;28;20241;-75
2022/04/11 09:53:07;;;;;;;0.00;0.00;;;;;;;;;;5044214;28;20207;-76
2022/04/11 09:55:34;;;;;;;0.10;0.10;;;;;;;;;;5034414;28;20249;-75
2022/04/11 09:58:01;;;;;;;0.03;0.03;;;;;;;;;;5043826;28;20254;-75
2022/04/11 10:00:29;;;;;;;0.10;0.10;;;;;;;;;;5034202;28;20263;-73
2022/04/11 10:03:02;;;;;;;0.00;0.00;;;;;;;;;;5044072;28;20216;-78
2022/04/11 10:05:31;;;;;;;0.00;0.00;;;;;;;;;;5033749;28;20525;-78
2022/04/11 10:08:03;;;;;;;0.10;0.10;;;;;;;;;;5043852;28;20214;-76
2022/04/11 10:10:38;;;;;;;0.10;0.10;;;;;;;;;;5034295;28;20501;-79
2022/04/11 10:13:15;;;;;;;0.10;0.10;;;;;;;;;;5044218;28;20205;-78
2022/04/11 10:15:45;;;;;;;0.10;0.10;;;;;;;;;;5028442;28;20270;-77
2022/04/11 10:18:16;;;;;;;0.10;0.10;;;;;;;;;;5022284;28;20234;-79
2022/04/11 10:20:43;;;;;;;0.10;0.10;;;;;;;;;;4997573;28;20258;-80
2022/04/11 10:23:17;;;;;;;0.10;0.10;;;;;;;;;;4964029;29;20269;-78
2022/04/11 10:25:48;;;;;;;0.00;0.00;;;;;;;;;;4953589;28;20253;-79
2022/04/11 10:28:27;;;;;;;0.10;0.10;;;;;;;;;;4963932;29;20454;-76
2022/04/11 10:33:50;;;;;;;0.10;0.10;;;;;;;;;;4982070;28;20287;-77
2022/04/11 10:36:32;;;;;;;0.10;0.10;;;;;;;;;;4972908;28;20250;-78
2022/04/11 10:39:20;;;;;;;0.03;0.03;;;;;;;;;;4982907;28;20217;-78
2022/04/11 10:42:06;;;;;;;0.03;0.03;;;;;;;;;;4959789;28;20283;-78
2022/04/11 10:44:35;;;;;;;0.10;0.10;;;;;;;;;;4944054;29;20278;-77
2022/04/11 10:47:23;;;;;;;0.10;0.10;;;;;;;;;;4958706;28;20263;-77
2022/04/11 10:53:05;;;;;;;0.10;0.10;;;;;;;;;;4960860;29;20345;-78
2022/04/11 10:55:32;;;;;;;0.10;0.10;;;;;;;;;;4953018;28;20247;-76
2022/04/11 10:58:00;;;;;;;0.10;0.10;;;;;;;;;;4963259;29;20204;-77
2022/04/11 11:00:28;;;;;;;0.10;0.10;;;;;;;;;;4953435;28;20252;-78
2022/04/11 11:03:06;;;;;;;0.10;0.10;;;;;;;;;;4932574;29;20208;-77
2022/04/11 11:05:35;;;;;;;0.10;0.10;;;;;;;;;;4915640;29;20253;-78
2022/04/11 11:08:23;;;;;;;0.10;0.10;;;;;;;;;;4973564;28;20232;-77
2022/04/11 11:10:52;;;;;;;0.10;0.10;;;;;;;;;;4977919;28;20252;-79
2022/04/11 11:13:26;;;;;;;0.10;0.10;;;;;;;;;;5061832;28;20560;-76
2022/04/11 11:15:54;;;;;;;0.10;0.10;;;;;;;;;;5052735;28;20252;-78
2022/04/11 11:18:27;;;;;;;0.00;0.00;;;;;;;;;;5062764;28;20262;-77
2022/04/11 11:20:56;;;;;;;0.10;0.10;;;;;;;;;;5051587;28;20294;-77
2022/04/11 11:23:27;;;;;;;0.10;0.10;;;;;;;;;;5062349;28;20426;-76
2022/04/11 11:25:54;;;;;;;0.10;0.10;;;;;;;;;;5052565;28;20245;-76
2022/04/11 11:31:49;;;;;;;0.10;0.10;;;;;;;;;;5010619;28;20332;-77
2022/04/11 11:34:17;;;;;;;0.10;0.10;;;;;;;;;;4981744;28;20272;-76
2022/04/11 11:36:44;;;;;;;0.10;0.10;;;;;;;;;;4934326;28;20251;-77
2022/04/11 11:45:14;;;;;;;0.10;0.10;;;;;;;;;;4922709;29;20292;-77
2022/04/11 11:47:42;;;;;;;0.10;0.10;;;;;;;;;;4923398;29;20218;-77
2022/04/11 11:50:16;;;;;;;0.10;0.10;;;;;;;;;;4914411;29;20218;-79
2022/04/11 11:53:00;;;;;;;0.10;0.10;;;;;;;;;;4924137;29;20226;-79
2022/04/11 11:55:36;;;;;;;0.10;0.10;;;;;;;;;;4913635;29;20356;-82
2022/04/11 11:58:03;;;;;;;0.10;0.10;;;;;;;;;;4924644;29;20436;-79
2022/04/11 12:00:33;;;;;;;0.00;0.00;;;;;;;;;;4917513;29;20543;-76
2022/04/11 12:05:46;;;;;;;0.10;0.10;;;;;;;;;;4939046;29;20349;-78
2022/04/11 12:08:18;;;;;;;0.10;0.10;;;;;;;;;;4962439;29;20205;-77
2022/04/11 12:11:11;;;;;;;0.10;0.10;;;;;;;;;;4952583;29;20250;-76
2022/04/11 12:14:00;;;;;;;0.27;0.27;;;;;;;;;;4949082;29;20259;-77
2022/04/11 12:16:29;;;;;;;0.10;0.10;;;;;;;;;;4948746;29;20250;-76
2022/04/11 12:19:04;;;;;;;0.10;0.10;;;;;;;;;;4943072;29;20444;-77
2022/04/11 12:21:32;;;;;;;0.10;0.10;;;;;;;;;;4964200;28;20251;-78
2022/04/11 12:23:59;;;;;;;0.10;0.10;;;;;;;;;;5020503;28;20209;-78
2022/04/11 12:26:28;;;;;;;0.10;0.10;;;;;;;;;;5010593;28;20251;-79
2022/04/11 12:31:55;;;;;;;0.10;0.10;;;;;;;;;;4998599;28;20196;-77
2022/04/11 12:34:31;;;;;;;0.10;0.10;;;;;;;;;;5020637;28;20441;-80
2022/04/11 12:37:01;;;;;;;0.10;0.10;;;;;;;;;;5010296;28;20251;-82
2022/04/11 12:39:27;;;;;;;0.10;0.10;;;;;;;;;;5020668;28;20210;-81
2022/04/11 12:41:55;;;;;;;0.10;0.10;;;;;;;;;;5018958;28;20444;-80
2022/04/11 12:44:22;;;;;;;0.10;0.10;;;;;;;;;;5060780;28;20216;-82
2022/04/11 12:46:49;;;;;;;0.10;0.10;;;;;;;;;;5051105;28;20254;-81
2022/04/11 12:49:20;;;;;;;0.10;0.10;;;;;;;;;;5062211;28;20402;-81
2022/04/11 12:51:59;;;;;;;0.10;0.10;;;;;;;;;;5037378;28;20461;-80
2022/04/11 12:54:34;;;;;;;0.10;0.10;;;;;;;;;;5042136;28;20217;-81
2022/04/11 12:57:01;;;;;;;0.10;0.10;;;;;;;;;;5031129;28;20286;-80
2022/04/11 12:59:30;;;;;;;0.03;0.03;;;;;;;;;;5041983;28;20528;-80
2022/04/11 13:01:57;;;;;;;0.10;0.10;;;;;;;;;;5031168;28;20241;-80
2022/04/11 13:04:25;;;;;;;0.00;0.00;;;;;;;;;;5042242;28;20507;-81
2022/04/11 13:06:52;;;;;;;0.10;0.10;;;;;;;;;;5033299;28;20290;-83
2022/04/11 13:09:21;;;;;;;0.00;0.00;;;;;;;;;;5045813;28;20492;-82
2022/04/11 13:11:48;;;;;;;0.10;0.10;;;;;;;;;;5034600;28;20382;-82
2022/04/11 13:14:15;;;;;;;0.03;0.03;;;;;;;;;;5045186;28;20238;-80
2022/04/11 13:19:27;;;;;;;0.10;0.10;;;;;;;;;;5045577;28;20222;-83
2022/04/11 13:21:53;;;;;;;0.10;0.10;;;;;;;;;;5034417;28;20254;-80
2022/04/11 13:24:25;;;;;;;0.10;0.10;;;;;;;;;;5045336;28;20531;-81
2022/04/11 13:26:51;;;;;;;0.10;0.10;;;;;;;;;;5034582;28;20295;-81
2022/04/11 13:29:18;;;;;;;0.10;0.10;;;;;;;;;;5045274;28;20211;-81
2022/04/11 13:31:44;;;;;;;0.10;0.10;;;;;;;;;;5034494;28;20270;-79
2022/04/11 13:34:10;;;;;;;0.10;0.10;;;;;;;;;;5045091;28;20434;-80
2022/04/11 13:36:37;;;;;;;0.10;0.10;;;;;;;;;;5034226;28;20320;-81
2022/04/11 13:39:04;;;;;;;0.10;0.10;;;;;;;;;;5044630;28;20418;-80
2022/04/11 13:41:32;;;;;;;0.10;0.10;;;;;;;;;;5034200;28;20599;-81
2022/04/11 13:43:59;;;;;;;0.10;0.10;;;;;;;;;;5044789;28;20211;-80
2022/04/11 13:46:28;;;;;;;0.10;0.10;;;;;;;;;;5034038;28;20294;-80
2022/04/11 13:48:55;;;;;;;0.10;0.10;;;;;;;;;;5044552;28;20217;-79
2022/04/11 13:51:22;;;;;;;0.10;0.10;;;;;;;;;;5034406;28;20267;-78
2022/04/11 13:53:48;;;;;;;0.10;0.10;;;;;;;;;;5044414;28;20204;-75
2022/04/11 13:56:14;;;;;;;0.10;0.10;;;;;;;;;;5033639;28;20578;-77
2022/04/11 13:58:42;;;;;;;0.10;0.10;;;;;;;;;;5044232;28;20281;-77
2022/04/11 14:01:09;;;;;;;0.10;0.10;;;;;;;;;;5035840;28;20253;-77
2022/04/11 14:03:35;;;;;;;0.10;0.10;;;;;;;;;;5045162;28;20205;-77
2022/04/11 14:06:02;;;;;;;0.10;0.10;;;;;;;;;;5033840;28;20252;-75
2022/04/11 14:08:28;;;;;;;0.10;0.10;;;;;;;;;;5045290;28;20207;-77
2022/04/11 14:10:55;;;;;;;0.10;0.10;;;;;;;;;;5026906;28;20263;-77
2022/04/11 14:13:22;;;;;;;0.10;0.10;;;;;;;;;;5022472;28;20236;-77
2022/04/11 14:15:50;;;;;;;0.10;0.10;;;;;;;;;;5000583;28;20565;-77
2022/04/11 14:18:17;;;;;;;0.10;0.10;;;;;;;;;;4982479;28;20273;-78
2022/04/11 14:20:45;;;;;;;0.10;0.10;;;;;;;;;;4978310;28;20242;-78
2022/04/11 14:23:13;;;;;;;0.10;0.10;;;;;;;;;;5002729;28;20214;-77
2022/04/11 14:25:39;;;;;;;0.10;0.10;;;;;;;;;;4994429;28;20464;-76
2022/04/11 14:28:07;;;;;;;0.10;0.10;;;;;;;;;;5002542;28;20221;-76
2022/04/11 14:30:34;;;;;;;0.10;0.10;;;;;;;;;;4997493;28;20390;-78
2022/04/11 14:33:04;;;;;;;0.10;0.10;;;;;;;;;;5002577;28;20233;-78
2022/04/11 14:35:35;;;;;;;0.10;0.10;;;;;;;;;;4995529;28;20248;-78
2022/04/11 14:38:06;;;;;;;0.10;0.10;;;;;;;;;;4971522;28;20509;-78
2022/04/11 14:41:01;;;;;;;0.10;0.10;;;;;;;;;;4953306;28;20475;-79
2022/04/11 14:43:48;;;;;;;0.10;0.10;;;;;;;;;;4917231;29;20208;-76
2022/04/11 14:46:15;;;;;;;0.10;0.10;;;;;;;;;;4934730;29;20345;-77
2022/04/11 14:48:58;;;;;;;0.10;0.10;;;;;;;;;;4944363;29;20218;-76
2022/04/11 14:51:24;;;;;;;0.10;0.10;;;;;;;;;;4934414;29;20460;-76
2022/04/11 14:53:51;;;;;;;0.10;0.10;;;;;;;;;;4928186;29;20215;-76
2022/04/11 14:56:17;;;;;;;0.10;0.10;;;;;;;;;;4933773;29;20421;-77
2022/04/11 14:58:44;;;;;;;0.10;0.10;;;;;;;;;;4944015;29;20524;-78
2022/04/11 15:01:10;;;;;;;0.10;0.10;;;;;;;;;;4937660;28;20258;-76
2022/04/11 15:03:40;;;;;;;0.10;0.10;;;;;;;;;;4982515;28;20209;-77
2022/04/11 15:06:08;;;;;;;0.10;0.10;;;;;;;;;;4972556;28;20277;-77
2022/04/11 15:08:35;;;;;;;0.10;0.10;;;;;;;;;;4982415;28;20215;-76
2022/04/11 15:11:02;;;;;;;0.10;0.10;;;;;;;;;;4972410;28;20297;-78
2022/04/11 15:13:28;;;;;;;0.10;0.10;;;;;;;;;;5018488;28;20459;-77